01:11
Airports
History
Links
Donate
Help keep this website running!
PayPal
Bitcoin
This page is community maintained. The information is intended for PC simulator navigation or reference.
Always use approved charts for navigation.
SKLT
ALFREDO VASQUEZ COBO
ALFREDO VASQUEZ COBO (SKLT)
Leticia, Amazonas, Colombia (910001)
(C)
Lat/Lng:4° 11' 35.4" S / 69° 56' 33.66" W
-4.193167 / -69.942682
Elevation:277'ft / 84mMSL
ID / ICAO:SKLT
Runways:1
Longest:03-21
Asphalt 1,883m / 6,177ft
Controlled:Yes
METAR01:00 GMT 2018-02-18
Altimeter: 29.82
Visibility: 6.2 statute miles
Wind: 4 knots (from 040°)
Temp: 25°c / 77°f
Humidity: 100.0%

METAR: SKLT 180100Z 04004KT 9999 SCT016 SCT080 25/25 A2982

(Powered by phpweather)
Airport Radio Frequencies
Tower: 118.1
Approach: 119.1
Runway 03 / 21
Dimensions:1882.9 x 39.9m 6177' x 131'ft
Surface:Asphalt
Edge Lights:Medium intensity
Runway 03 [A]Runway 21 [B]
Heading:020°TH 200°TH
Lat:
Lng:
4° 12' 3.96"S
69° 56' 44.47"W
4° 11' 6.84"S
69° 56' 22.84"W
User Notes and Comments
4° 11' 35.4" S / 69° 56' 33.66" W
Distance To
Airport ID:
Nearby Airports
(C) TABATINGA 4.3 NM
SBTT ( WX ) S 173°
(U) CABALLOCOCHA 43.4 NM
SPBC WNW 296°
(U) SENADORA EUNICE MICHILES 84.3 NM
SDCG NE 53°
(C) Ipiranga 88.3 NM
SWII N 11°
(C) Carimagua 99.2 NM
SKOL WSW 254°
(C) Orocue 105.8 NM
SKOE WSW 246°
(C) Estirao Do Equador 113.8 NM
SWEE WSW 258°
VFR Chart
Flight Planning at SkyVector.com